sensor_id;sensor_type;location;lat;lon;timestamp;pressure;altitude;pressure_sealevel;temperature;humidity
49297;BME280;35163;48.878;18.040;2023-04-10T00:02:09;99160.88;;;6.72;73.76
49297;BME280;35163;48.878;18.040;2023-04-10T00:04:36;99161.75;;;6.70;73.92
49297;BME280;35163;48.878;18.040;2023-04-10T00:07:03;99160.03;;;6.72;74.20
49297;BME280;35163;48.878;18.040;2023-04-10T00:09:33;99154.03;;;6.74;74.05
49297;BME280;35163;48.878;18.040;2023-04-10T00:11:59;99147.16;;;6.72;74.38
49297;BME280;35163;48.878;18.040;2023-04-10T00:14:26;99148.91;;;6.65;74.20
49297;BME280;35163;48.878;18.040;2023-04-10T00:16:53;99145.50;;;6.67;74.49
49297;BME280;35163;48.878;18.040;2023-04-10T00:19:19;99150.66;;;6.58;75.07
49297;BME280;35163;48.878;18.040;2023-04-10T00:21:46;99149.78;;;6.54;75.11
49297;BME280;35163;48.878;18.040;2023-04-10T00:24:13;99153.28;;;6.46;75.68
49297;BME280;35163;48.878;18.040;2023-04-10T00:26:40;99143.84;;;6.43;75.64
49297;BME280;35163;48.878;18.040;2023-04-10T00:29:07;99146.41;;;6.44;75.70
49297;BME280;35163;48.878;18.040;2023-04-10T00:31:36;99152.41;;;6.39;76.18
49297;BME280;35163;48.878;18.040;2023-04-10T00:34:04;99146.44;;;6.35;76.48
49297;BME280;35163;48.878;18.040;2023-04-10T00:36:32;99145.59;;;6.35;76.45
49297;BME280;35163;48.878;18.040;2023-04-10T00:38:58;99146.44;;;6.37;76.75
49297;BME280;35163;48.878;18.040;2023-04-10T00:41:25;99151.59;;;6.37;76.64
49297;BME280;35163;48.878;18.040;2023-04-10T00:43:56;99150.72;;;6.38;76.75
49297;BME280;35163;48.878;18.040;2023-04-10T00:46:23;99145.56;;;6.38;76.30
49297;BME280;35163;48.878;18.040;2023-04-10T00:48:50;99157.56;;;6.36;76.68
49297;BME280;35163;48.878;18.040;2023-04-10T00:51:18;99151.59;;;6.37;76.64
49297;BME280;35163;48.878;18.040;2023-04-10T00:53:49;99148.16;;;6.36;76.90
49297;BME280;35163;48.878;18.040;2023-04-10T00:56:18;99157.56;;;6.36;77.05
49297;BME280;35163;48.878;18.040;2023-04-10T00:58:45;99155.88;;;6.31;77.13
49297;BME280;35163;48.878;18.040;2023-04-10T01:01:12;99159.28;;;6.34;77.08
49297;BME280;35163;48.878;18.040;2023-04-10T01:03:40;99155.88;;;6.28;77.30
49297;BME280;35163;48.878;18.040;2023-04-10T01:08:54;99159.28;;;6.34;76.76
49297;BME280;35163;48.878;18.040;2023-04-10T01:11:54;99165.25;;;6.39;76.34
49297;BME280;35163;48.878;18.040;2023-04-10T01:14:32;99161.84;;;6.30;76.53
49297;BME280;35163;48.878;18.040;2023-04-10T01:17:15;99156.72;;;6.26;76.67
49297;BME280;35163;48.878;18.040;2023-04-10T01:26:00;99150.75;;;6.28;76.33
49297;BME280;35163;48.878;18.040;2023-04-10T01:31:10;99145.63;;;6.20;76.42
49297;BME280;35163;48.878;18.040;2023-04-10T01:33:42;99144.75;;;6.26;76.29
49297;BME280;35163;48.878;18.040;2023-04-10T01:36:17;99153.31;;;6.24;76.45
49297;BME280;35163;48.878;18.040;2023-04-10T01:38:47;99143.91;;;6.18;76.77
49297;BME280;35163;48.878;18.040;2023-04-10T01:41:17;99150.75;;;6.19;76.44
49297;BME280;35163;48.878;18.040;2023-04-10T01:43:47;99147.34;;;6.12;76.84
49297;BME280;35163;48.878;18.040;2023-04-10T01:46:17;99144.78;;;6.11;76.72
49297;BME280;35163;48.878;18.040;2023-04-10T01:48:45;99150.75;;;6.06;76.88
49297;BME280;35163;48.878;18.040;2023-04-10T01:51:13;99143.91;;;5.96;76.93
49297;BME280;35163;48.878;18.040;2023-04-10T01:53:42;99141.34;;;5.91;77.16
49297;BME280;35163;48.878;18.040;2023-04-10T01:56:11;99142.19;;;5.93;77.30
49297;BME280;35163;48.878;18.040;2023-04-10T01:58:38;99143.91;;;5.90;77.08
49297;BME280;35163;48.878;18.040;2023-04-10T02:01:06;99146.50;;;5.83;76.89
49297;BME280;35163;48.878;18.040;2023-04-10T02:03:34;99138.78;;;5.90;77.14
49297;BME280;35163;48.878;18.040;2023-04-10T02:06:14;99145.63;;;5.84;76.56
49297;BME280;35163;48.878;18.040;2023-04-10T02:08:56;99142.19;;;5.92;76.92
49297;BME280;35163;48.878;18.040;2023-04-10T02:11:40;99142.22;;;5.90;77.08
49297;BME280;35163;48.878;18.040;2023-04-10T02:14:10;99142.19;;;5.95;76.85
49297;BME280;35163;48.878;18.040;2023-04-10T02:16:38;99140.50;;;5.94;76.99
49297;BME280;35163;48.878;18.040;2023-04-10T02:19:05;99141.34;;;5.91;77.09
49297;BME280;35163;48.878;18.040;2023-04-10T02:21:33;99148.19;;;5.86;77.15
49297;BME280;35163;48.878;18.040;2023-04-10T02:24:03;99145.63;;;5.81;77.11
49297;BME280;35163;48.878;18.040;2023-04-10T02:26:43;99151.59;;;5.80;76.89
49297;BME280;35163;48.878;18.040;2023-04-10T02:29:10;99151.59;;;5.76;77.09
49297;BME280;35163;48.878;18.040;2023-04-10T02:31:38;99143.06;;;5.70;76.85
49297;BME280;35163;48.878;18.040;2023-04-10T02:34:06;99145.63;;;5.69;76.90
49297;BME280;35163;48.878;18.040;2023-04-10T02:36:35;99143.06;;;5.69;77.03
49297;BME280;35163;48.878;18.040;2023-04-10T02:39:02;99143.06;;;5.64;76.50
49297;BME280;35163;48.878;18.040;2023-04-10T02:41:29;99143.06;;;5.64;76.47
49297;BME280;35163;48.878;18.040;2023-04-10T02:43:56;99134.50;;;5.62;76.33
49297;BME280;35163;48.878;18.040;2023-04-10T02:46:23;99141.34;;;5.60;76.10
49297;BME280;35163;48.878;18.040;2023-04-10T02:48:51;99134.50;;;5.51;76.53
49297;BME280;35163;48.878;18.040;2023-04-10T02:51:18;99135.34;;;5.44;76.88
49297;BME280;35163;48.878;18.040;2023-04-10T02:53:47;99143.88;;;5.41;77.31
49297;BME280;35163;48.878;18.040;2023-04-10T02:56:14;99144.75;;;5.37;77.53
49297;BME280;35163;48.878;18.040;2023-04-10T02:58:40;99140.47;;;5.38;77.12
49297;BME280;35163;48.878;18.040;2023-04-10T03:01:11;99140.47;;;5.25;77.40
49297;BME280;35163;48.878;18.040;2023-04-10T03:03:41;99144.72;;;5.21;77.72
49297;BME280;35163;48.878;18.040;2023-04-10T03:06:08;99147.28;;;5.20;77.61
49297;BME280;35163;48.878;18.040;2023-04-10T03:08:36;99143.84;;;5.12;77.84
49297;BME280;35163;48.878;18.040;2023-04-10T03:11:02;99139.56;;;5.14;77.66
49297;BME280;35163;48.878;18.040;2023-04-10T03:13:29;99143.84;;;5.12;77.91
49297;BME280;35163;48.878;18.040;2023-04-10T03:15:56;99141.25;;;5.08;77.77
49297;BME280;35163;48.878;18.040;2023-04-10T03:18:22;99146.38;;;5.07;77.91
49297;BME280;35163;48.878;18.040;2023-04-10T03:20:51;99140.38;;;4.97;78.22
49297;BME280;35163;48.878;18.040;2023-04-10T03:23:18;99137.81;;;5.02;77.81
49297;BME280;35163;48.878;18.040;2023-04-10T03:25:48;99146.38;;;5.01;77.93
49297;BME280;35163;48.878;18.040;2023-04-10T03:28:16;99140.38;;;4.92;78.64
49297;BME280;35163;48.878;18.040;2023-04-10T03:30:43;99145.50;;;4.97;78.27
49297;BME280;35163;48.878;18.040;2023-04-10T03:33:10;99153.19;;;4.95;78.54
49297;BME280;35163;48.878;18.040;2023-04-10T03:35:37;99142.94;;;4.89;78.95
49297;BME280;35163;48.878;18.040;2023-04-10T03:38:04;99143.75;;;4.86;79.13
49297;BME280;35163;48.878;18.040;2023-04-10T03:40:30;99146.31;;;4.79;79.15
49297;BME280;35163;48.878;18.040;2023-04-10T03:42:59;99152.28;;;4.78;79.51
49297;BME280;35163;48.878;18.040;2023-04-10T03:45:26;99153.16;;;4.81;79.61
49297;BME280;35163;48.878;18.040;2023-04-10T03:47:53;99147.13;;;4.74;80.13
49297;BME280;35163;48.878;18.040;2023-04-10T03:50:19;99152.25;;;4.74;80.41
49297;BME280;35163;48.878;18.040;2023-04-10T03:52:46;99151.41;;;4.74;79.89
49297;BME280;35163;48.878;18.040;2023-04-10T03:55:16;99145.44;;;4.72;79.82
49297;BME280;35163;48.878;18.040;2023-04-10T03:57:48;99152.25;;;4.73;79.90
49297;BME280;35163;48.878;18.040;2023-04-10T04:00:15;99145.44;;;4.75;79.53
49297;BME280;35163;48.878;18.040;2023-04-10T04:02:44;99151.41;;;4.74;79.84
49297;BME280;35163;48.878;18.040;2023-04-10T04:05:11;99145.41;;;4.69;80.00
49297;BME280;35163;48.878;18.040;2023-04-10T04:07:38;99153.13;;;4.70;80.12
49297;BME280;35163;48.878;18.040;2023-04-10T04:10:05;99147.13;;;4.76;79.88
49297;BME280;35163;48.878;18.040;2023-04-10T04:12:34;99147.13;;;4.70;81.10
49297;BME280;35163;48.878;18.040;2023-04-10T04:15:01;99161.69;;;4.82;80.42
49297;BME280;35163;48.878;18.040;2023-04-10T04:17:28;99157.44;;;4.82;80.45
49297;BME280;35163;48.878;18.040;2023-04-10T04:19:54;99155.72;;;4.86;80.59
49297;BME280;35163;48.878;18.040;2023-04-10T04:22:21;99154.88;;;4.82;80.79
49297;BME280;35163;48.878;18.040;2023-04-10T04:24:48;99163.41;;;4.86;80.50
49297;BME280;35163;48.878;18.040;2023-04-10T04:27:14;99157.44;;;4.89;80.53
49297;BME280;35163;48.878;18.040;2023-04-10T04:29:41;99164.25;;;4.83;80.51
49297;BME280;35163;48.878;18.040;2023-04-10T04:32:08;99165.97;;;4.84;80.41
49297;BME280;35163;48.878;18.040;2023-04-10T04:34:35;99166.84;;;4.91;80.26
49297;BME280;35163;48.878;18.040;2023-04-10T04:37:01;99172.81;;;4.89;80.25
49297;BME280;35163;48.878;18.040;2023-04-10T04:39:28;99172.81;;;4.89;80.19
49297;BME280;35163;48.878;18.040;2023-04-10T04:41:55;99177.94;;;4.89;79.89
49297;BME280;35163;48.878;18.040;2023-04-10T04:44:22;99178.81;;;4.95;79.64
49297;BME280;35163;48.878;18.040;2023-04-10T04:46:48;99168.59;;;4.98;79.16
49297;BME280;35163;48.878;18.040;2023-04-10T04:49:15;99172.00;;;4.97;80.02
49297;BME280;35163;48.878;18.040;2023-04-10T04:51:42;99172.84;;;4.98;80.04
49297;BME280;35163;48.878;18.040;2023-04-10T04:54:08;99177.16;;;5.02;79.96
49297;BME280;35163;48.878;18.040;2023-04-10T04:56:35;99172.88;;;5.04;80.04
49297;BME280;35163;48.878;18.040;2023-04-10T04:59:02;99183.13;;;5.06;80.47
49297;BME280;35163;48.878;18.040;2023-04-10T05:01:29;99178.03;;;5.10;80.13
49297;BME280;35163;48.878;18.040;2023-04-10T05:03:56;99174.63;;;5.15;80.04
49297;BME280;35163;48.878;18.040;2023-04-10T05:06:23;99176.31;;;5.13;79.92
49297;BME280;35163;48.878;18.040;2023-04-10T05:08:49;99181.47;;;5.19;79.61
49297;BME280;35163;48.878;18.040;2023-04-10T05:11:18;99183.19;;;5.18;79.89
49297;BME280;35163;48.878;18.040;2023-04-10T05:13:45;99181.47;;;5.22;79.70
49297;BME280;35163;48.878;18.040;2023-04-10T05:16:11;99184.06;;;5.28;79.18
49297;BME280;35163;48.878;18.040;2023-04-10T05:18:38;99187.50;;;5.32;79.30
49297;BME280;35163;48.878;18.040;2023-04-10T05:21:05;99181.53;;;5.41;78.80
49297;BME280;35163;48.878;18.040;2023-04-10T05:23:32;99187.53;;;5.46;78.30
49297;BME280;35163;48.878;18.040;2023-04-10T05:25:58;99180.66;;;5.48;78.54
49297;BME280;35163;48.878;18.040;2023-04-10T05:28:25;99181.53;;;5.50;78.28
49297;BME280;35163;48.878;18.040;2023-04-10T05:30:52;99184.97;;;5.55;78.88
49297;BME280;35163;48.878;18.040;2023-04-10T05:33:18;99182.41;;;5.55;79.23
49297;BME280;35163;48.878;18.040;2023-04-10T05:35:45;99177.28;;;5.65;78.93
49297;BME280;35163;48.878;18.040;2023-04-10T05:38:12;99180.69;;;5.62;79.64
49297;BME280;35163;48.878;18.040;2023-04-10T05:40:39;99190.97;;;5.73;78.77
49297;BME280;35163;48.878;18.040;2023-04-10T05:43:05;99197.81;;;5.71;78.72
49297;BME280;35163;48.878;18.040;2023-04-10T05:45:32;99203.81;;;5.76;78.61
49297;BME280;35163;48.878;18.040;2023-04-10T05:47:59;99201.22;;;5.78;78.16
49297;BME280;35163;48.878;18.040;2023-04-10T05:50:25;99197.81;;;5.79;77.89
49297;BME280;35163;48.878;18.040;2023-04-10T05:52:55;99198.66;;;5.82;78.16
49297;BME280;35163;48.878;18.040;2023-04-10T05:55:21;99190.13;;;5.90;77.51
49297;BME280;35163;48.878;18.040;2023-04-10T05:57:48;99198.66;;;6.01;76.69
49297;BME280;35163;48.878;18.040;2023-04-10T06:00:17;99208.06;;;5.98;76.57
49297;BME280;35163;48.878;18.040;2023-04-10T06:02:44;99202.09;;;5.94;76.91
49297;BME280;35163;48.878;18.040;2023-04-10T06:05:11;99208.09;;;5.87;77.10
49297;BME280;35163;48.878;18.040;2023-04-10T06:07:38;99207.25;;;5.94;77.11
49297;BME280;35163;48.878;18.040;2023-04-10T06:10:05;99206.41;;;6.06;76.48
49297;BME280;35163;48.878;18.040;2023-04-10T06:12:32;99206.41;;;6.07;76.71
49297;BME280;35163;48.878;18.040;2023-04-10T06:14:58;99207.25;;;6.25;76.12
49297;BME280;35163;48.878;18.040;2023-04-10T06:17:25;99205.53;;;6.30;75.30
49297;BME280;35163;48.878;18.040;2023-04-10T06:19:53;99202.09;;;6.47;74.63
49297;BME280;35163;48.878;18.040;2023-04-10T06:22:22;99198.63;;;6.54;74.39
49297;BME280;35163;48.878;18.040;2023-04-10T06:24:48;99199.47;;;6.67;73.76
49297;BME280;35163;48.878;18.040;2023-04-10T06:27:15;99195.13;;;6.79;73.59
49297;BME280;35163;48.878;18.040;2023-04-10T06:29:42;99195.97;;;6.83;72.97
49297;BME280;35163;48.878;18.040;2023-04-10T06:32:08;99206.19;;;7.00;72.82
49297;BME280;35163;48.878;18.040;2023-04-10T06:34:38;99201.84;;;7.13;72.46
49297;BME280;35163;48.878;18.040;2023-04-10T06:37:04;99202.59;;;7.32;72.07
49297;BME280;35163;48.878;18.040;2023-04-10T06:39:31;99198.22;;;7.50;71.56
49297;BME280;35163;48.878;18.040;2023-04-10T06:41:58;99209.25;;;7.66;71.06
49297;BME280;35163;48.878;18.040;2023-04-10T06:44:25;99203.16;;;7.83;70.67
49297;BME280;35163;48.878;18.040;2023-04-10T06:46:51;99210.75;;;7.98;70.87
49297;BME280;35163;48.878;18.040;2023-04-10T06:49:18;99202.88;;;8.14;69.80
49297;BME280;35163;48.878;18.040;2023-04-10T06:51:46;99207.03;;;8.32;69.76
49297;BME280;35163;48.878;18.040;2023-04-10T06:54:13;99209.47;;;8.46;68.60
49297;BME280;35163;48.878;18.040;2023-04-10T06:56:40;99199.88;;;8.61;68.75
49297;BME280;35163;48.878;18.040;2023-04-10T06:59:07;99205.72;;;8.79;68.17
49297;BME280;35163;48.878;18.040;2023-04-10T07:01:34;99197.81;;;8.93;67.46
49297;BME280;35163;48.878;18.040;2023-04-10T07:04:01;99197.59;;;9.08;67.21
49297;BME280;35163;48.878;18.040;2023-04-10T07:06:30;99199.97;;;9.24;67.34
49297;BME280;35163;48.878;18.040;2023-04-10T07:08:57;99208.38;;;9.40;66.75
49297;BME280;35163;48.878;18.040;2023-04-10T07:11:24;99200.44;;;9.54;66.21
49297;BME280;35163;48.878;18.040;2023-04-10T07:13:51;99199.31;;;9.72;66.15
49297;BME280;35163;48.878;18.040;2023-04-10T07:16:23;99194.69;;;9.92;65.70
49297;BME280;35163;48.878;18.040;2023-04-10T07:18:50;99194.44;;;10.09;65.25
49297;BME280;35163;48.878;18.040;2023-04-10T07:21:17;99196.75;;;10.25;65.03
49297;BME280;35163;48.878;18.040;2023-04-10T07:23:44;99203.47;;;10.35;64.05
49297;BME280;35163;48.878;18.040;2023-04-10T07:26:11;99197.25;;;10.45;63.76
49297;BME280;35163;48.878;18.040;2023-04-10T07:28:38;99201.38;;;10.57;63.04
49297;BME280;35163;48.878;18.040;2023-04-10T07:31:05;99197.66;;;10.71;62.45
49297;BME280;35163;48.878;18.040;2023-04-10T07:33:33;99204.66;;;10.66;62.07
49297;BME280;35163;48.878;18.040;2023-04-10T07:36:02;99202.66;;;10.79;62.39
49297;BME280;35163;48.878;18.040;2023-04-10T07:38:32;99204.22;;;10.88;62.28
49297;BME280;35163;48.878;18.040;2023-04-10T07:40:59;99194.59;;;10.94;61.58
49297;BME280;35163;48.878;18.040;2023-04-10T07:43:25;99193.53;;;11.05;62.05
49297;BME280;35163;48.878;18.040;2023-04-10T07:45:52;99189.03;;;11.13;62.79
49297;BME280;35163;48.878;18.040;2023-04-10T07:48:19;99191.25;;;11.30;62.73
49297;BME280;35163;48.878;18.040;2023-04-10T07:50:48;99186.56;;;11.48;62.95
49297;BME280;35163;48.878;18.040;2023-04-10T07:53:14;99187.97;;;11.62;61.72
49297;BME280;35163;48.878;18.040;2023-04-10T07:55:43;99172.28;;;11.68;60.89
49297;BME280;35163;48.878;18.040;2023-04-10T07:58:10;99179.84;;;11.77;60.84
49297;BME280;35163;48.878;18.040;2023-04-10T08:00:37;99180.44;;;11.87;60.67
49297;BME280;35163;48.878;18.040;2023-04-10T08:03:03;99181.03;;;11.99;60.40
49297;BME280;35163;48.878;18.040;2023-04-10T08:05:32;99183.78;;;11.93;58.26
49297;BME280;35163;48.878;18.040;2023-04-10T08:07:59;99184.53;;;11.98;58.74
49297;BME280;35163;48.878;18.040;2023-04-10T08:10:25;99172.28;;;12.03;57.77
49297;BME280;35163;48.878;18.040;2023-04-10T08:12:52;99171.41;;;12.04;57.84
49297;BME280;35163;48.878;18.040;2023-04-10T08:15:19;99178.16;;;12.11;58.69
49297;BME280;35163;48.878;18.040;2023-04-10T08:17:46;99167.53;;;12.22;58.33
49297;BME280;35163;48.878;18.040;2023-04-10T08:20:13;99182.06;;;12.28;57.30
49297;BME280;35163;48.878;18.040;2023-04-10T08:22:39;99186.19;;;12.35;57.36
49297;BME280;35163;48.878;18.040;2023-04-10T08:25:06;99178.50;;;12.32;55.95
49297;BME280;35163;48.878;18.040;2023-04-10T08:27:33;99176.72;;;12.34;55.38
49297;BME280;35163;48.878;18.040;2023-04-10T08:30:00;99175.72;;;12.38;56.13
49297;BME280;35163;48.878;18.040;2023-04-10T08:32:26;99172.09;;;12.46;56.09
49297;BME280;35163;48.878;18.040;2023-04-10T08:34:53;99172.09;;;12.46;55.54
49297;BME280;35163;48.878;18.040;2023-04-10T08:37:20;99162.53;;;12.48;55.13
49297;BME280;35163;48.878;18.040;2023-04-10T08:39:47;99154.75;;;12.48;54.65
49297;BME280;35163;48.878;18.040;2023-04-10T08:42:14;99157.16;;;12.54;54.52
49297;BME280;35163;48.878;18.040;2023-04-10T08:44:40;99168.34;;;12.56;55.32
49297;BME280;35163;48.878;18.040;2023-04-10T08:47:08;99156.19;;;12.58;55.93
49297;BME280;35163;48.878;18.040;2023-04-10T08:49:50;99160.97;;;12.41;55.15
49297;BME280;35163;48.878;18.040;2023-04-10T08:52:24;99166.09;;;12.44;55.84
49297;BME280;35163;48.878;18.040;2023-04-10T08:54:55;99156.44;;;12.49;56.14
49297;BME280;35163;48.878;18.040;2023-04-10T08:57:24;99152.97;;;12.50;55.28
49297;BME280;35163;48.878;18.040;2023-04-10T08:59:57;99152.66;;;12.61;56.09
49297;BME280;35163;48.878;18.040;2023-04-10T09:02:27;99153.41;;;12.64;55.49
49297;BME280;35163;48.878;18.040;2023-04-10T09:04:57;99147.66;;;12.55;54.53
49297;BME280;35163;48.878;18.040;2023-04-10T09:07:25;99144.41;;;12.46;54.29
49297;BME280;35163;48.878;18.040;2023-04-10T09:09:52;99145.88;;;12.55;54.89
49297;BME280;35163;48.878;18.040;2023-04-10T09:12:19;99142.53;;;12.51;55.76
49297;BME280;35163;48.878;18.040;2023-04-10T09:14:45;99140.69;;;12.55;54.84
49297;BME280;35163;48.878;18.040;2023-04-10T09:17:23;99144.22;;;12.52;54.85
49297;BME280;35163;48.878;18.040;2023-04-10T09:19:53;99143.19;;;12.60;54.04
49297;BME280;35163;48.878;18.040;2023-04-10T09:22:34;99139.50;;;12.67;54.84
49297;BME280;35163;48.878;18.040;2023-04-10T09:25:03;99141.97;;;12.72;54.74
49297;BME280;35163;48.878;18.040;2023-04-10T09:27:34;99132.22;;;12.80;54.95
49297;BME280;35163;48.878;18.040;2023-04-10T09:30:02;99140.09;;;12.77;53.82
49297;BME280;35163;48.878;18.040;2023-04-10T09:35:03;99138.94;;;12.87;54.52
49297;BME280;35163;48.878;18.040;2023-04-10T09:37:37;99136.00;;;12.98;54.39
49297;BME280;35163;48.878;18.040;2023-04-10T09:40:04;99129.97;;;12.98;53.32
49297;BME280;35163;48.878;18.040;2023-04-10T09:42:35;99121.59;;;12.88;53.14
49297;BME280;35163;48.878;18.040;2023-04-10T09:45:03;99119.50;;;13.01;54.15
49297;BME280;35163;48.878;18.040;2023-04-10T09:47:31;99125.53;;;13.02;53.16
49297;BME280;35163;48.878;18.040;2023-04-10T09:49:59;99108.06;;;13.07;52.99
49297;BME280;35163;48.878;18.040;2023-04-10T09:52:31;99108.88;;;13.09;52.62
49297;BME280;35163;48.878;18.040;2023-04-10T09:55:02;99103.53;;;13.13;53.45
49297;BME280;35163;48.878;18.040;2023-04-10T09:57:31;99097.63;;;13.08;52.47
49297;BME280;35163;48.878;18.040;2023-04-10T10:00:03;99097.59;;;13.10;52.72
49297;BME280;35163;48.878;18.040;2023-04-10T10:02:36;99099.13;;;13.16;53.43
49297;BME280;35163;48.878;18.040;2023-04-10T10:05:05;99101.50;;;13.23;53.42
49297;BME280;35163;48.878;18.040;2023-04-10T10:07:33;99097.81;;;13.31;53.44
49297;BME280;35163;48.878;18.040;2023-04-10T10:10:01;99092.66;;;13.29;52.55
49297;BME280;35163;48.878;18.040;2023-04-10T10:12:33;99097.78;;;13.32;52.85
49297;BME280;35163;48.878;18.040;2023-04-10T10:15:06;99091.56;;;13.36;52.23
49297;BME280;35163;48.878;18.040;2023-04-10T10:17:39;99084.31;;;13.46;52.84
49297;BME280;35163;48.878;18.040;2023-04-10T10:20:09;99080.94;;;13.44;52.50
49297;BME280;35163;48.878;18.040;2023-04-10T10:22:40;99083.22;;;13.55;53.48
49297;BME280;35163;48.878;18.040;2023-04-10T10:25:08;99093.84;;;13.47;51.08
49297;BME280;35163;48.878;18.040;2023-04-10T10:27:36;99086.88;;;13.48;51.86
49297;BME280;35163;48.878;18.040;2023-04-10T10:30:05;99080.75;;;13.51;52.19
49297;BME280;35163;48.878;18.040;2023-04-10T10:32:54;99079.50;;;13.63;52.87
49297;BME280;35163;48.878;18.040;2023-04-10T10:35:22;99077.59;;;13.68;52.48
49297;BME280;35163;48.878;18.040;2023-04-10T10:37:53;99071.56;;;13.67;51.71
49297;BME280;35163;48.878;18.040;2023-04-10T10:43:13;99067.31;;;13.90;53.02
49297;BME280;35163;48.878;18.040;2023-04-10T10:46:03;99060.97;;;13.99;52.41
49297;BME280;35163;48.878;18.040;2023-04-10T10:48:30;99061.78;;;14.00;51.20
49297;BME280;35163;48.878;18.040;2023-04-10T10:50:58;99056.53;;;14.01;51.05
49297;BME280;35163;48.878;18.040;2023-04-10T11:01:17;99056.16;;;14.12;50.25
49297;BME280;35163;48.878;18.040;2023-04-10T11:03:44;99048.19;;;14.17;50.55
49297;BME280;35163;48.878;18.040;2023-04-10T11:06:14;99054.88;;;14.24;50.64
49297;BME280;35163;48.878;18.040;2023-04-10T11:11:17;99037.44;;;14.26;49.58
49297;BME280;35163;48.878;18.040;2023-04-10T11:19:06;99032.56;;;14.17;49.04
49297;BME280;35163;48.878;18.040;2023-04-10T11:22:05;99024.00;;;14.15;49.35
49297;BME280;35163;48.878;18.040;2023-04-10T11:24:53;99026.75;;;14.10;49.76
49297;BME280;35163;48.878;18.040;2023-04-10T11:27:44;99031.75;;;14.16;49.72
49297;BME280;35163;48.878;18.040;2023-04-10T11:30:32;99031.69;;;14.18;49.68
49297;BME280;35163;48.878;18.040;2023-04-10T11:33:00;99027.63;;;14.11;50.38
49297;BME280;35163;48.878;18.040;2023-04-10T11:35:27;99023.41;;;14.06;50.46
49297;BME280;35163;48.878;18.040;2023-04-10T11:38:07;99021.84;;;14.02;51.28
49297;BME280;35163;48.878;18.040;2023-04-10T11:40:34;99019.44;;;13.96;51.17
49297;BME280;35163;48.878;18.040;2023-04-10T11:43:21;99014.03;;;14.02;51.46
49297;BME280;35163;48.878;18.040;2023-04-10T11:45:48;99005.78;;;13.91;50.59
49297;BME280;35163;48.878;18.040;2023-04-10T11:48:15;99013.25;;;14.00;51.17
49297;BME280;35163;48.878;18.040;2023-04-10T11:50:45;99006.56;;;13.93;49.98
49297;BME280;35163;48.878;18.040;2023-04-10T11:53:19;98999.31;;;14.03;49.99
49297;BME280;35163;48.878;18.040;2023-04-10T11:55:47;99007.81;;;14.06;50.23
49297;BME280;35163;48.878;18.040;2023-04-10T11:58:24;98998.75;;;13.93;49.88
49297;BME280;35163;48.878;18.040;2023-04-10T12:01:01;99002.97;;;13.97;50.80
49297;BME280;35163;48.878;18.040;2023-04-10T12:03:44;98985.63;;;13.97;50.56
49297;BME280;35163;48.878;18.040;2023-04-10T12:06:13;98992.88;;;13.88;50.49
49297;BME280;35163;48.878;18.040;2023-04-10T12:08:40;98989.09;;;13.96;50.97
49297;BME280;35163;48.878;18.040;2023-04-10T12:11:09;98989.06;;;13.98;50.50
49297;BME280;35163;48.878;18.040;2023-04-10T12:13:36;98978.38;;;13.82;49.84
49297;BME280;35163;48.878;18.040;2023-04-10T12:16:07;98979.06;;;13.87;50.23
49297;BME280;35163;48.878;18.040;2023-04-10T12:18:35;98993.63;;;13.91;50.35
49297;BME280;35163;48.878;18.040;2023-04-10T12:21:03;98975.50;;;13.90;49.86
49297;BME280;35163;48.878;18.040;2023-04-10T12:23:32;98972.25;;;13.83;49.73
49297;BME280;35163;48.878;18.040;2023-04-10T12:26:15;98963.41;;;13.89;50.28
49297;BME280;35163;48.878;18.040;2023-04-10T12:29:06;98962.72;;;13.83;49.90
49297;BME280;35163;48.878;18.040;2023-04-10T12:31:34;98957.28;;;13.90;50.00
49297;BME280;35163;48.878;18.040;2023-04-10T12:34:02;98955.25;;;13.98;50.35
49297;BME280;35163;48.878;18.040;2023-04-10T12:36:31;98959.44;;;14.02;49.84
49297;BME280;35163;48.878;18.040;2023-04-10T12:39:01;98939.66;;;13.98;49.21
49297;BME280;35163;48.878;18.040;2023-04-10T12:41:30;98939.53;;;14.01;49.87
49297;BME280;35163;48.878;18.040;2023-04-10T12:44:11;98937.53;;;14.09;49.83
49297;BME280;35163;48.878;18.040;2023-04-10T12:46:39;98930.66;;;14.07;48.85
49297;BME280;35163;48.878;18.040;2023-04-10T12:49:16;98940.06;;;14.11;49.17
49297;BME280;35163;48.878;18.040;2023-04-10T12:51:48;98940.66;;;14.18;49.92
49297;BME280;35163;48.878;18.040;2023-04-10T12:54:33;98937.28;;;14.16;49.67
49297;BME280;35163;48.878;18.040;2023-04-10T12:57:02;98945.25;;;14.11;48.91
49297;BME280;35163;48.878;18.040;2023-04-10T12:59:29;98939.16;;;14.12;49.04
49297;BME280;35163;48.878;18.040;2023-04-10T13:01:57;98930.44;;;14.13;49.63
49297;BME280;35163;48.878;18.040;2023-04-10T13:04:24;98930.44;;;14.13;49.50
49297;BME280;35163;48.878;18.040;2023-04-10T13:06:51;98933.00;;;14.15;49.54
49297;BME280;35163;48.878;18.040;2023-04-10T13:09:18;98934.84;;;14.11;49.50
49297;BME280;35163;48.878;18.040;2023-04-10T13:11:50;98922.63;;;14.13;49.28
49297;BME280;35163;48.878;18.040;2023-04-10T13:14:20;98914.88;;;14.12;49.79
49297;BME280;35163;48.878;18.040;2023-04-10T13:16:48;98913.38;;;14.06;49.62
49297;BME280;35163;48.878;18.040;2023-04-10T13:19:14;98906.41;;;14.06;49.34
49297;BME280;35163;48.878;18.040;2023-04-10T13:21:41;98904.47;;;14.12;49.77
49297;BME280;35163;48.878;18.040;2023-04-10T13:24:10;98894.81;;;14.15;49.75
49297;BME280;35163;48.878;18.040;2023-04-10T13:26:38;98887.06;;;14.14;49.56
49297;BME280;35163;48.878;18.040;2023-04-10T13:29:05;98888.00;;;14.13;49.11
49297;BME280;35163;48.878;18.040;2023-04-10T13:31:31;98875.72;;;14.16;49.25
49297;BME280;35163;48.878;18.040;2023-04-10T13:33:58;98876.44;;;14.20;49.28
49297;BME280;35163;48.878;18.040;2023-04-10T13:36:25;98867.72;;;14.21;49.04
49297;BME280;35163;48.878;18.040;2023-04-10T13:38:52;98859.81;;;14.24;49.55